Time;durP1;ratioP1;P1;durP2;ratioP2;P2;SDS_P1;SDS_P2;PMS_P1;PMS_P2;Temp;Humidity;BMP_temperature;BMP_pressure;BME280_temperature;BME280_humidity;BME280_pressure;Samples;Min_cycle;Max_cycle;Signal;HPM_P1;HPM_P2
2022/05/26 00:01:21;;;;;;;16.38;4.03;;;14.40;99.90;;;;;;4903937;29;20480;-79
2022/05/26 00:03:48;;;;;;;16.70;3.78;;;14.40;99.90;;;;;;4903332;29;20120;-79
2022/05/26 00:06:17;;;;;;;21.08;4.90;;;14.40;99.90;;;;;;4909551;29;20091;-77
2022/05/26 00:08:44;;;;;;;22.67;4.22;;;14.40;99.90;;;;;;4918188;29;20055;-79
2022/05/26 00:11:13;;;;;;;15.40;3.78;;;14.40;99.90;;;;;;4918239;29;20055;-79
2022/05/26 00:13:40;;;;;;;18.48;4.20;;;14.40;99.90;;;;;;4902764;29;20079;-79
2022/05/26 00:16:06;;;;;;;17.02;3.80;;;14.40;99.90;;;;;;4901990;29;20174;-80
2022/05/26 00:18:32;;;;;;;19.65;4.63;;;14.40;99.90;;;;;;4893430;29;20064;-79
2022/05/26 00:20:58;;;;;;;18.02;4.38;;;14.40;99.90;;;;;;4903124;29;20135;-79
2022/05/26 00:23:24;;;;;;;17.80;4.10;;;14.40;99.90;;;;;;4909417;29;20140;-78
2022/05/26 00:25:50;;;;;;;12.90;4.03;;;14.40;99.90;;;;;;4882341;29;20066;-80
2022/05/26 00:28:16;;;;;;;13.02;3.92;;;14.40;99.90;;;;;;4880689;29;20051;-79
2022/05/26 00:30:41;;;;;;;13.27;3.30;;;14.50;99.90;;;;;;4904018;29;20401;-80
2022/05/26 00:33:08;;;;;;;15.63;3.42;;;14.50;99.90;;;;;;4897273;29;20052;-79
2022/05/26 00:35:37;;;;;;;15.95;3.92;;;14.40;99.90;;;;;;4906986;29;20478;-80
2022/05/26 00:38:10;;;;;;;15.65;3.47;;;14.40;99.90;;;;;;4905712;29;20132;-79
2022/05/26 00:40:36;;;;;;;11.75;3.42;;;14.40;99.90;;;;;;4875062;29;20131;-79
2022/05/26 00:43:02;;;;;;;13.82;3.55;;;14.40;99.90;;;;;;4905643;29;20052;-79
2022/05/26 00:45:43;;;;;;;10.02;2.60;;;14.40;99.90;;;;;;4913145;29;20073;-79
2022/05/26 00:48:15;;;;;;;12.75;3.22;;;14.40;99.90;;;;;;4905717;29;20111;-79
2022/05/26 00:50:51;;;;;;;10.48;2.80;;;14.50;99.90;;;;;;4912340;29;20051;-80
2022/05/26 00:53:23;;;;;;;11.30;2.45;;;14.50;99.90;;;;;;4912801;29;20094;-79
2022/05/26 00:56:07;;;;;;;11.70;2.85;;;14.50;99.90;;;;;;4890563;29;20064;-79
2022/05/26 00:58:37;;;;;;;13.52;3.30;;;14.50;99.90;;;;;;4921873;29;20048;-80
2022/05/26 01:01:03;;;;;;;12.65;3.22;;;14.50;99.90;;;;;;4889896;29;20056;-79
2022/05/26 01:03:57;;;;;;;11.95;3.13;;;14.50;99.90;;;;;;4928557;29;20115;-80
2022/05/26 01:06:38;;;;;;;12.20;3.00;;;14.50;99.90;;;;;;4904180;29;20450;-80
2022/05/26 01:09:06;;;;;;;12.52;2.80;;;14.40;99.90;;;;;;4912122;29;20047;-80
2022/05/26 01:11:37;;;;;;;15.30;3.28;;;14.40;99.90;;;;;;4905751;29;20052;-80
2022/05/26 01:14:18;;;;;;;11.75;3.28;;;14.40;99.90;;;;;;4903756;29;20546;-79
2022/05/26 01:17:12;;;;;;;12.95;2.90;;;14.40;99.90;;;;;;4912386;29;20065;-79
2022/05/26 01:19:58;;;;;;;15.80;3.00;;;14.50;99.90;;;;;;4895955;29;20056;-79
2022/05/26 01:22:32;;;;;;;12.60;2.80;;;14.40;99.90;;;;;;4890148;29;20079;-79
2022/05/26 01:25:50;;;;;;;13.35;2.83;;;14.40;99.90;;;;;;4897638;29;20112;-79
2022/05/26 01:28:34;;;;;;;13.38;2.67;;;14.30;99.90;;;;;;4885341;29;20067;-78
2022/05/26 01:31:06;;;;;;;12.20;3.00;;;14.40;99.90;;;;;;4920868;29;20056;-78
2022/05/26 01:33:56;;;;;;;8.45;2.25;;;14.40;99.90;;;;;;4905540;29;20056;-78
2022/05/26 01:36:42;;;;;;;8.50;2.20;;;14.30;99.90;;;;;;4895260;29;20060;-79
2022/05/26 01:39:27;;;;;;;8.35;2.13;;;14.30;99.90;;;;;;4896679;29;20644;-79
2022/05/26 01:41:53;;;;;;;4.95;1.65;;;14.30;99.90;;;;;;4910634;29;20091;-79
2022/05/26 01:44:42;;;;;;;7.60;1.80;;;14.30;99.90;;;;;;4912390;29;20088;-79
2022/05/26 01:47:40;;;;;;;7.13;1.65;;;14.20;99.90;;;;;;4905950;29;20067;-79
2022/05/26 01:50:25;;;;;;;6.70;1.80;;;14.20;99.90;;;;;;4904603;29;20045;-79
2022/05/26 01:53:16;;;;;;;4.75;1.70;;;14.20;99.90;;;;;;4910645;29;20169;-79
2022/05/26 01:56:05;;;;;;;7.53;1.33;;;14.20;99.90;;;;;;4904610;29;20076;-80
2022/05/26 01:58:40;;;;;;;4.57;1.20;;;14.20;99.90;;;;;;4896850;29;20127;-80
2022/05/26 02:01:13;;;;;;;4.68;1.40;;;14.30;99.90;;;;;;4905553;29;20087;-79
2022/05/26 02:03:41;;;;;;;7.45;1.65;;;14.20;99.90;;;;;;4904984;29;20056;-79
2022/05/26 02:06:19;;;;;;;4.88;1.42;;;14.20;99.90;;;;;;4890458;29;20059;-79
2022/05/26 02:09:06;;;;;;;7.22;1.38;;;14.20;99.90;;;;;;4904026;29;20089;-79
2022/05/26 02:11:35;;;;;;;5.97;1.33;;;14.20;99.90;;;;;;4911197;29;20049;-79
2022/05/26 02:14:11;;;;;;;4.75;1.40;;;14.20;99.90;;;;;;4910516;29;20044;-79
2022/05/26 02:16:42;;;;;;;;;;;14.20;99.90;;;;;;4889320;29;20072;-81
2022/05/26 02:19:35;;;;;;;4.75;1.30;;;14.20;99.90;;;;;;4890716;29;19993;-79
2022/05/26 02:22:10;;;;;;;5.00;1.63;;;14.20;99.90;;;;;;4903616;29;20505;-79
2022/05/26 02:24:48;;;;;;;5.00;1.85;;;14.10;99.90;;;;;;4904949;29;20545;-80
2022/05/26 02:27:14;;;;;;;4.20;1.27;;;14.10;99.90;;;;;;4904386;29;20060;-80
2022/05/26 02:29:52;;;;;;;7.35;1.88;;;14.10;99.90;;;;;;4910824;29;20482;-79
2022/05/26 02:32:40;;;;;;;5.32;1.50;;;14.10;99.90;;;;;;4876586;29;20139;-79
2022/05/26 02:35:21;;;;;;;6.70;1.55;;;14.00;99.90;;;;;;4905192;29;20063;-79
2022/05/26 02:37:51;;;;;;;7.40;1.83;;;14.00;99.90;;;;;;4910154;29;20056;-80
2022/05/26 02:40:17;;;;;;;5.95;1.33;;;14.00;99.90;;;;;;4890262;29;20053;-79
2022/05/26 02:42:51;;;;;;;5.70;1.20;;;13.90;99.90;;;;;;4904447;29;20052;-79
2022/05/26 02:45:39;;;;;;;6.18;1.10;;;13.90;99.90;;;;;;4905671;29;20079;-79
2022/05/26 02:48:25;;;;;;;6.90;1.60;;;13.90;99.90;;;;;;4891587;29;20056;-79
2022/05/26 02:51:03;;;;;;;6.32;1.45;;;13.80;99.90;;;;;;4920055;29;20048;-79
2022/05/26 02:53:59;;;;;;;6.53;2.05;;;13.90;99.90;;;;;;4905787;29;20056;-79
2022/05/26 02:56:52;;;;;;;5.68;1.17;;;13.80;99.90;;;;;;4920321;29;20052;-78
2022/05/26 02:59:50;;;;;;;6.15;1.35;;;13.80;99.90;;;;;;4903592;29;20529;-79
2022/05/26 03:02:34;;;;;;;6.72;1.30;;;13.80;99.90;;;;;;4919055;29;20074;-79
2022/05/26 03:05:17;;;;;;;5.78;1.40;;;13.80;99.90;;;;;;4905145;29;20059;-79
2022/05/26 03:07:46;;;;;;;5.35;1.10;;;13.80;99.90;;;;;;4904412;29;20044;-80
2022/05/26 03:10:15;;;;;;;4.65;1.67;;;13.80;99.90;;;;;;4923013;29;20139;-79
2022/05/26 03:12:41;;;;;;;4.70;1.63;;;13.80;99.90;;;;;;4920948;29;20067;-80
2022/05/26 03:15:08;;;;;;;4.28;1.10;;;13.80;99.90;;;;;;4911254;29;20056;-79
2022/05/26 03:17:35;;;;;;;5.05;1.33;;;13.80;99.90;;;;;;4910279;29;20058;-80
2022/05/26 03:20:01;;;;;;;7.88;1.38;;;13.80;99.90;;;;;;4888944;29;20186;-79
2022/05/26 03:22:26;;;;;;;5.22;1.40;;;13.80;99.90;;;;;;4903659;29;20135;-79
2022/05/26 03:24:53;;;;;;;5.75;1.10;;;13.80;99.90;;;;;;4901179;29;20108;-79
2022/05/26 03:27:19;;;;;;;3.92;1.13;;;13.80;99.90;;;;;;4872674;29;20074;-79
2022/05/26 03:29:45;;;;;;;5.47;1.20;;;13.80;99.90;;;;;;4901864;29;20052;-81
2022/05/26 03:32:10;;;;;;;5.05;1.17;;;13.70;99.90;;;;;;4903236;29;20092;-80
2022/05/26 03:42:57;;;;;;;6.80;1.25;;;13.70;99.90;;;;;;4910536;29;20059;-79
2022/05/26 03:45:24;;;;;;;6.38;1.33;;;13.70;99.90;;;;;;4892797;29;20068;-79
2022/05/26 03:47:50;;;;;;;3.83;1.25;;;13.70;99.90;;;;;;4902800;29;20099;-79
2022/05/26 03:50:17;;;;;;;4.72;1.33;;;13.70;99.90;;;;;;4894447;29;20071;-79
2022/05/26 03:52:42;;;;;;;5.45;1.13;;;13.70;99.90;;;;;;4871059;29;20087;-78
2022/05/26 03:55:08;;;;;;;6.15;1.25;;;13.70;99.90;;;;;;4917275;29;20094;-79
2022/05/26 03:57:34;;;;;;;5.40;1.20;;;13.70;99.90;;;;;;4918155;29;20111;-79
2022/05/26 04:00:00;;;;;;;6.00;1.30;;;13.70;99.90;;;;;;4903400;29;20134;-79
2022/05/26 04:02:27;;;;;;;6.57;1.42;;;13.70;99.90;;;;;;4876800;29;20067;-79
2022/05/26 04:04:53;;;;;;;5.75;1.20;;;13.70;99.90;;;;;;4905917;29;20508;-80
2022/05/26 04:07:18;;;;;;;3.25;0.93;;;13.70;99.90;;;;;;4875827;29;20052;-79
2022/05/26 04:09:44;;;;;;;7.65;1.42;;;13.70;99.90;;;;;;4906607;29;20048;-79
2022/05/26 04:12:11;;;;;;;5.75;1.30;;;13.70;99.90;;;;;;4922689;29;20418;-79
2022/05/26 04:14:38;;;;;;;4.20;1.15;;;13.70;99.90;;;;;;4906301;29;20053;-79
2022/05/26 04:17:04;;;;;;;4.22;0.90;;;13.70;99.90;;;;;;4914124;29;20159;-79
2022/05/26 04:19:30;;;;;;;4.05;1.40;;;13.70;99.90;;;;;;4906913;29;20131;-80
2022/05/26 04:24:42;;;;;;;8.23;1.38;;;13.70;99.90;;;;;;4906751;29;20052;-78
2022/05/26 04:27:08;;;;;;;5.82;1.73;;;13.70;99.90;;;;;;4896102;29;20052;-79
2022/05/26 04:29:35;;;;;;;5.30;1.13;;;13.70;99.90;;;;;;4897805;29;20051;-79
2022/05/26 04:32:02;;;;;;;4.97;1.35;;;13.80;99.90;;;;;;4914206;29;20048;-79
2022/05/26 04:34:28;;;;;;;5.40;1.50;;;13.80;99.90;;;;;;4906628;29;20496;-80
2022/05/26 04:36:54;;;;;;;5.65;1.40;;;13.80;99.90;;;;;;4911697;29;20083;-79
2022/05/26 04:39:19;;;;;;;3.35;1.05;;;13.90;99.90;;;;;;4905373;29;20055;-79
2022/05/26 04:41:47;;;;;;;3.83;1.20;;;13.90;99.90;;;;;;4890189;29;20056;-79
2022/05/26 04:44:15;;;;;;;5.47;1.20;;;13.90;99.90;;;;;;4873731;29;20517;-79
2022/05/26 04:46:41;;;;;;;3.58;1.08;;;13.90;99.90;;;;;;4889781;29;20501;-78
2022/05/26 04:49:08;;;;;;;3.38;1.15;;;14.00;99.90;;;;;;4911019;29;20043;-79
2022/05/26 04:51:35;;;;;;;4.57;1.35;;;13.90;99.90;;;;;;4912923;29;20158;-79
2022/05/26 04:54:02;;;;;;;4.72;1.13;;;14.00;99.90;;;;;;4904969;29;20398;-79
2022/05/26 04:56:28;;;;;;;5.18;1.45;;;14.00;99.90;;;;;;4904984;29;20139;-79
2022/05/26 04:58:54;;;;;;;5.63;0.98;;;14.00;99.90;;;;;;4919940;29;20657;-79
2022/05/26 05:01:21;;;;;;;3.92;0.90;;;14.10;99.90;;;;;;4905441;29;20062;-78
2022/05/26 05:03:47;;;;;;;5.85;1.10;;;14.10;99.90;;;;;;4907294;29;20126;-79
2022/05/26 05:06:14;;;;;;;6.07;1.15;;;14.10;99.90;;;;;;4874592;29;20052;-79
2022/05/26 05:08:41;;;;;;;6.55;1.33;;;14.10;99.90;;;;;;4905852;29;20044;-79
2022/05/26 05:11:07;;;;;;;3.75;1.13;;;14.10;99.90;;;;;;4889894;29;20116;-79
2022/05/26 05:13:33;;;;;;;6.00;1.38;;;14.20;99.90;;;;;;4905840;29;20410;-79
2022/05/26 05:16:10;;;;;;;5.03;1.23;;;14.20;99.90;;;;;;4912350;29;20048;-80
2022/05/26 05:18:35;;;;;;;2.90;1.00;;;14.20;99.90;;;;;;4905897;29;20052;-79
2022/05/26 05:21:07;;;;;;;6.75;1.35;;;14.20;99.90;;;;;;4872667;29;20044;-79
2022/05/26 05:23:36;;;;;;;5.50;1.27;;;14.30;99.90;;;;;;4905853;29;20099;-79
2022/05/26 05:26:02;;;;;;;3.58;1.10;;;14.30;99.90;;;;;;4907885;29;20051;-79
2022/05/26 05:28:33;;;;;;;4.65;1.40;;;14.30;99.90;;;;;;4875671;29;20056;-79
2022/05/26 05:31:16;;;;;;;6.35;1.10;;;14.30;99.90;;;;;;4921951;29;20481;-80
2022/05/26 05:33:53;;;;;;;4.68;1.10;;;14.40;99.90;;;;;;4921821;29;20070;-80
2022/05/26 05:36:28;;;;;;;5.50;1.17;;;14.40;99.90;;;;;;4912731;29;20095;-79
2022/05/26 05:38:57;;;;;;;3.40;1.10;;;14.50;99.90;;;;;;4888100;29;20131;-81
2022/05/26 05:41:23;;;;;;;4.90;1.48;;;14.50;99.90;;;;;;4906705;29;20379;-80
2022/05/26 05:43:49;;;;;;;4.80;1.08;;;14.50;99.90;;;;;;4906990;29;20060;-79
2022/05/26 05:46:19;;;;;;;7.22;1.30;;;14.60;99.90;;;;;;4875610;29;20064;-80
2022/05/26 05:48:46;;;;;;;5.72;1.35;;;14.60;99.90;;;;;;4907645;29;20127;-79
2022/05/26 05:51:12;;;;;;;3.53;1.20;;;14.70;99.90;;;;;;4906826;29;20080;-78
2022/05/26 05:53:38;;;;;;;5.07;1.40;;;14.70;99.90;;;;;;4906439;29;20099;-79
2022/05/26 05:56:05;;;;;;;5.13;1.38;;;14.80;99.90;;;;;;4879613;29;20111;-79
2022/05/26 05:58:30;;;;;;;4.90;1.30;;;14.80;99.90;;;;;;4904499;29;20051;-79
2022/05/26 06:00:56;;;;;;;5.68;1.25;;;14.80;99.90;;;;;;4904467;29;20060;-80
2022/05/26 06:03:22;;;;;;;4.82;1.25;;;14.90;99.90;;;;;;4920294;29;20054;-78
2022/05/26 06:05:48;;;;;;;6.05;1.45;;;14.90;99.90;;;;;;4905176;29;20052;-79
2022/05/26 06:08:14;;;;;;;5.50;1.00;;;15.00;99.90;;;;;;4896235;29;20172;-80
2022/05/26 06:10:40;;;;;;;6.45;1.17;;;15.00;99.90;;;;;;4895175;29;20056;-78
2022/05/26 06:13:06;;;;;;;4.72;1.00;;;15.10;99.90;;;;;;4905020;29;20195;-78
2022/05/26 06:15:33;;;;;;;2.72;1.02;;;15.10;99.90;;;;;;4920808;29;20067;-78
2022/05/26 06:17:59;;;;;;;6.07;1.42;;;15.20;99.90;;;;;;4921611;29;20052;-80
2022/05/26 06:20:26;;;;;;;5.22;1.50;;;15.20;99.90;;;;;;4903705;29;20072;-78
2022/05/26 06:22:52;;;;;;;4.35;1.02;;;15.30;99.90;;;;;;4919851;29;20049;-78
2022/05/26 06:25:19;;;;;;;5.57;1.30;;;15.30;99.90;;;;;;4888513;29;20643;-78
2022/05/26 06:30:30;;;;;;;4.82;1.17;;;15.30;99.90;;;;;;4893346;29;20487;-78
2022/05/26 06:38:33;;;;;;;5.03;1.40;;;15.40;99.90;;;;;;4903720;29;20048;-78
2022/05/26 06:42:05;;;;;;;5.35;1.17;;;15.40;99.90;;;;;;4874792;29;20437;-80
2022/05/26 06:43:48;;;;;;;4.30;1.30;;;15.40;99.90;;;;;;4910103;29;20044;-79
2022/05/26 06:46:14;;;;;;;5.10;1.20;;;15.50;99.90;;;;;;4920930;29;20116;-78
2022/05/26 06:48:40;;;;;;;5.25;1.23;;;15.50;99.90;;;;;;4911855;29;20057;-78
2022/05/26 06:51:07;;;;;;;4.45;1.20;;;15.50;99.90;;;;;;4921601;29;20055;-80
2022/05/26 06:53:33;;;;;;;5.72;1.10;;;15.50;99.90;;;;;;4903545;29;20040;-79
2022/05/26 06:55:59;;;;;;;4.75;1.38;;;15.60;99.90;;;;;;4903906;29;20086;-80
2022/05/26 06:58:26;;;;;;;7.63;1.60;;;15.70;99.90;;;;;;4894719;29;20044;-79
2022/05/26 07:00:53;;;;;;;5.80;1.40;;;15.80;99.90;;;;;;4871622;29;20080;-78
2022/05/26 07:03:19;;;;;;;5.95;1.02;;;15.90;99.90;;;;;;4909984;29;20062;-78
2022/05/26 07:05:45;;;;;;;5.72;1.40;;;16.00;99.90;;;;;;4920759;29;20167;-78
2022/05/26 07:08:11;;;;;;;7.13;1.17;;;16.20;99.90;;;;;;4887938;29;20044;-78
2022/05/26 07:10:37;;;;;;;4.03;1.33;;;16.30;99.90;;;;;;4887598;29;20044;-78
2022/05/26 07:13:04;;;;;;;4.82;1.10;;;16.30;99.90;;;;;;4871753;29;20059;-78
2022/05/26 07:15:29;;;;;;;3.85;1.00;;;16.40;99.90;;;;;;4910244;29;20075;-79
2022/05/26 07:17:55;;;;;;;5.47;1.30;;;16.40;99.90;;;;;;4903537;29;20506;-78
2022/05/26 07:20:21;;;;;;;5.57;1.42;;;16.50;99.90;;;;;;4919800;29;20044;-79
2022/05/26 07:22:47;;;;;;;3.72;1.23;;;16.40;99.90;;;;;;4919792;29;20040;-78
2022/05/26 07:25:13;;;;;;;6.10;1.20;;;16.50;99.90;;;;;;4900947;29;20056;-78
2022/05/26 07:27:38;;;;;;;5.75;1.27;;;16.60;99.90;;;;;;4918761;29;20055;-79
2022/05/26 07:30:06;;;;;;;5.32;1.35;;;16.50;99.90;;;;;;4901223;29;20063;-78
2022/05/26 07:32:31;;;;;;;4.80;1.00;;;16.60;99.90;;;;;;4903900;29;20052;-78
2022/05/26 07:34:57;;;;;;;5.28;1.10;;;16.50;99.90;;;;;;4916632;29;20485;-79
2022/05/26 07:42:53;;;;;;;4.20;1.13;;;16.40;99.90;;;;;;4894449;29;20095;-78
2022/05/26 07:45:19;;;;;;;3.40;1.05;;;16.40;99.90;;;;;;4887114;29;20069;-79
2022/05/26 07:47:45;;;;;;;4.35;0.95;;;16.40;99.90;;;;;;4918944;29;20048;-78
2022/05/26 07:50:19;;;;;;;5.90;1.48;;;16.40;99.90;;;;;;4904333;29;20457;-80
2022/05/26 07:52:49;;;;;;;6.60;1.25;;;16.50;99.90;;;;;;4893957;29;20455;-77
2022/05/26 07:55:15;;;;;;;5.20;1.98;;;16.50;99.90;;;;;;4887564;29;20094;-79
2022/05/26 07:57:41;;;;;;;4.90;1.23;;;16.60;99.90;;;;;;4893327;29;20056;-78
2022/05/26 08:00:11;;;;;;;3.65;0.90;;;16.70;99.90;;;;;;4893000;29;20107;-79
2022/05/26 08:02:37;;;;;;;4.32;1.00;;;16.80;99.90;;;;;;4893064;29;20048;-79
2022/05/26 08:05:10;;;;;;;4.40;0.98;;;16.90;99.90;;;;;;4921978;29;20119;-80
2022/05/26 08:07:36;;;;;;;3.00;1.00;;;17.10;99.90;;;;;;4911804;29;20572;-78
2022/05/26 08:10:05;;;;;;;3.25;1.05;;;17.30;99.90;;;;;;4871433;29;20111;-79
2022/05/26 08:12:31;;;;;;;2.97;0.95;;;17.40;99.90;;;;;;4885590;29;20502;-78
2022/05/26 08:14:57;;;;;;;3.38;0.98;;;17.50;99.90;;;;;;4916673;29;20099;-79
2022/05/26 08:17:23;;;;;;;2.75;0.90;;;17.60;99.90;;;;;;4900230;29;20052;-78
2022/05/26 08:19:50;;;;;;;2.83;1.00;;;17.60;99.90;;;;;;4871169;29;20059;-78
2022/05/26 08:22:20;;;;;;;3.15;1.10;;;17.70;99.90;;;;;;4901941;29;20052;-79
2022/05/26 08:24:54;;;;;;;5.53;1.23;;;17.90;99.90;;;;;;4904284;29;20464;-81
2022/05/26 08:27:21;;;;;;;4.00;1.10;;;18.10;99.90;;;;;;4887363;29;20083;-81
2022/05/26 08:29:56;;;;;;;4.38;1.35;;;18.30;99.90;;;;;;4909966;29;20048;-85
2022/05/26 08:32:23;;;;;;;5.07;1.42;;;18.40;99.90;;;;;;4905063;29;20048;-81
2022/05/26 08:34:50;;;;;;;4.22;1.00;;;18.20;99.90;;;;;;4893469;29;20064;-82
2022/05/26 08:37:20;;;;;;;5.25;1.30;;;18.10;99.90;;;;;;4920318;29;20060;-82
2022/05/26 08:39:47;;;;;;;5.20;1.30;;;17.90;99.90;;;;;;4906911;29;20048;-78
2022/05/26 08:42:34;;;;;;;4.68;1.33;;;17.80;99.90;;;;;;4910511;29;20048;-79
2022/05/26 08:45:04;;;;;;;7.28;1.40;;;17.70;99.90;;;;;;4918061;29;20064;-79
2022/05/26 08:47:42;;;;;;;4.40;1.08;;;17.80;99.90;;;;;;4913082;29;20063;-78
2022/05/26 08:50:16;;;;;;;5.75;1.38;;;18.00;99.90;;;;;;4913257;29;20111;-79
2022/05/26 08:53:07;;;;;;;4.07;1.20;;;18.20;99.90;;;;;;4906687;29;20457;-81
2022/05/26 08:55:49;;;;;;;3.55;1.27;;;18.40;99.90;;;;;;4908470;29;20089;-77
2022/05/26 08:58:18;;;;;;;5.80;1.65;;;18.70;99.90;;;;;;4929213;29;20047;-77
2022/05/26 09:00:49;;;;;;;6.18;1.92;;;18.70;99.90;;;;;;4896659;29;20059;-75
2022/05/26 09:03:27;;;;;;;5.10;1.88;;;18.80;99.90;;;;;;4921791;29;20052;-77
2022/05/26 09:06:01;;;;;;;10.27;1.90;;;18.90;99.90;;;;;;4906097;29;20052;-78
2022/05/26 09:14:06;;;;;;;5.93;1.50;;;19.00;99.90;;;;;;4911925;29;20053;-78
2022/05/26 09:16:39;;;;;;;5.78;1.88;;;19.10;99.90;;;;;;4921011;29;20078;-78
2022/05/26 09:19:18;;;;;;;9.80;2.17;;;19.30;99.90;;;;;;4920823;29;20055;-78
2022/05/26 09:21:46;;;;;;;7.05;1.88;;;19.20;99.90;;;;;;4921777;29;20155;-80
2022/05/26 09:24:31;;;;;;;4.28;1.48;;;19.20;99.90;;;;;;4905268;29;20410;-79
2022/05/26 09:27:02;;;;;;;5.47;1.65;;;19.20;99.90;;;;;;4905022;29;20513;-78
2022/05/26 09:29:35;;;;;;;7.45;1.70;;;19.40;99.90;;;;;;4904225;29;20055;-78
2022/05/26 09:32:03;;;;;;;5.70;1.77;;;19.50;99.90;;;;;;4920215;29;20108;-76
2022/05/26 09:34:34;;;;;;;9.35;2.20;;;19.60;99.90;;;;;;4920955;29;20454;-77
2022/05/26 09:37:07;;;;;;;7.55;1.85;;;19.70;99.90;;;;;;4916883;29;20056;-78
2022/05/26 09:39:39;;;;;;;6.03;1.52;;;19.80;99.90;;;;;;4909656;29;20051;-77
2022/05/26 09:42:17;;;;;;;5.38;1.70;;;19.80;99.90;;;;;;4912792;29;20052;-77
2022/05/26 09:44:59;;;;;;;5.28;1.73;;;20.00;99.90;;;;;;4912128;29;20056;-77
2022/05/26 09:47:28;;;;;;;5.68;1.63;;;20.20;99.90;;;;;;4911696;29;20060;-77
2022/05/26 09:49:59;;;;;;;5.03;1.60;;;20.00;99.90;;;;;;4894007;29;20052;-78
2022/05/26 09:52:30;;;;;;;9.43;2.03;;;20.20;99.90;;;;;;4921753;29;20056;-78
2022/05/26 09:55:30;;;;;;;5.38;1.75;;;20.20;99.90;;;;;;4912941;29;20124;-78
2022/05/26 09:58:12;;;;;;;8.30;1.98;;;19.70;99.90;;;;;;4905684;29;20510;-78
2022/05/26 10:00:45;;;;;;;5.70;1.50;;;19.30;99.90;;;;;;4889568;29;20057;-76
2022/05/26 10:03:25;;;;;;;3.22;1.30;;;18.90;99.90;;;;;;4910636;29;20059;-78
2022/05/26 10:06:22;;;;;;;3.53;1.27;;;18.60;99.90;;;;;;4925981;29;20063;-78
2022/05/26 10:09:03;;;;;;;5.45;1.50;;;18.30;99.90;;;;;;4907662;29;20087;-78
2022/05/26 10:11:35;;;;;;;4.38;1.50;;;18.00;99.90;;;;;;4910202;29;20494;-78
2022/05/26 10:14:04;;;;;;;6.75;1.60;;;18.10;99.90;;;;;;4911859;29;20506;-76
2022/05/26 10:16:43;;;;;;;5.10;1.58;;;18.30;99.90;;;;;;4911676;29;20498;-77
2022/05/26 10:19:47;;;;;;;5.20;1.40;;;18.30;99.90;;;;;;4905958;29;20049;-77
2022/05/26 10:22:34;;;;;;;6.53;1.67;;;18.30;99.90;;;;;;4909508;29;20048;-78
2022/05/26 10:25:05;;;;;;;4.93;1.42;;;18.40;99.90;;;;;;4909909;29;20080;-77
2022/05/26 10:27:40;;;;;;;6.97;1.65;;;18.60;99.90;;;;;;4921725;29;20055;-79
2022/05/26 10:30:40;;;;;;;6.93;1.67;;;18.80;99.90;;;;;;4908699;29;20059;-80
2022/05/26 10:33:18;;;;;;;4.72;1.50;;;19.00;99.90;;;;;;4910992;29;20085;-77
2022/05/26 10:36:17;;;;;;;4.55;1.30;;;19.30;99.90;;;;;;4919335;29;20069;-79
2022/05/26 10:39:01;;;;;;;4.80;1.52;;;19.70;99.90;;;;;;4921627;29;20519;-78
2022/05/26 10:41:42;;;;;;;5.03;1.58;;;19.60;99.90;;;;;;4912075;29;20116;-79
2022/05/26 10:44:17;;;;;;;6.85;1.50;;;19.70;99.90;;;;;;4922578;29;20293;-79
2022/05/26 10:46:51;;;;;;;7.20;1.98;;;19.90;99.90;;;;;;4906344;29;20056;-79
2022/05/26 10:49:20;;;;;;;5.90;1.60;;;19.90;99.90;;;;;;4907076;29;20055;-80
2022/05/26 10:51:55;;;;;;;7.38;1.48;;;19.90;99.90;;;;;;4910340;29;20045;-77
2022/05/26 10:54:29;;;;;;;5.00;1.50;;;19.80;99.90;;;;;;4920501;29;20482;-79
2022/05/26 10:57:09;;;;;;;5.32;1.30;;;20.10;99.90;;;;;;4909719;29;20061;-79
2022/05/26 10:59:40;;;;;;;6.35;1.50;;;20.10;99.90;;;;;;4906220;29;20044;-79
2022/05/26 11:02:14;;;;;;;5.68;1.70;;;19.90;99.90;;;;;;4907440;29;20044;-80
2022/05/26 11:05:06;;;;;;;4.63;1.48;;;19.90;99.90;;;;;;4903672;29;20490;-79
2022/05/26 11:07:43;;;;;;;5.90;1.38;;;20.00;99.90;;;;;;4904317;29;20462;-80
2022/05/26 11:10:19;;;;;;;5.60;1.55;;;20.20;99.90;;;;;;4911523;29;20048;-81
2022/05/26 11:12:54;;;;;;;3.15;1.35;;;20.30;99.90;;;;;;4920037;29;20051;-80
2022/05/26 11:18:25;;;;;;;5.50;1.58;;;20.40;99.90;;;;;;4904202;29;20159;-79
2022/05/26 11:20:53;;;;;;;6.07;1.75;;;20.50;99.90;;;;;;4919208;29;20138;-78
2022/05/26 11:23:21;;;;;;;6.90;1.65;;;20.30;99.90;;;;;;4907531;29;20456;-79
2022/05/26 11:25:59;;;;;;;10.13;2.05;;;20.30;99.90;;;;;;4901769;29;20050;-80
2022/05/26 11:28:41;;;;;;;8.95;2.00;;;20.30;99.90;;;;;;4922060;29;20053;-80
2022/05/26 11:36:52;;;;;;;7.35;2.00;;;20.80;99.90;;;;;;4907455;29;20071;-79
2022/05/26 11:39:29;;;;;;;7.28;2.10;;;20.70;99.90;;;;;;4908684;29;20063;-79
2022/05/26 11:42:02;;;;;;;7.50;2.10;;;20.50;99.90;;;;;;4903239;29;20066;-78
2022/05/26 11:44:41;;;;;;;9.48;2.13;;;20.30;99.90;;;;;;4909825;29;20223;-79
2022/05/26 11:47:34;;;;;;;7.28;2.17;;;20.10;99.90;;;;;;4902312;29;20537;-77
2022/05/26 11:50:04;;;;;;;10.20;2.28;;;20.10;99.90;;;;;;4910669;29;20054;-80
2022/05/26 11:52:35;;;;;;;8.43;2.17;;;19.70;99.90;;;;;;4911879;29;20071;-79
2022/05/26 11:55:06;;;;;;;7.75;2.00;;;19.40;99.90;;;;;;4926823;29;20486;-78
2022/05/26 11:57:38;;;;;;;6.60;1.80;;;19.30;99.90;;;;;;4907775;29;20088;-79
2022/05/26 12:00:22;;;;;;;6.60;2.10;;;19.20;99.90;;;;;;4904217;29;20063;-78
2022/05/26 12:02:53;;;;;;;10.00;2.67;;;19.10;99.90;;;;;;4909091;29;20574;-78
2022/05/26 12:05:28;;;;;;;7.07;1.88;;;19.10;99.90;;;;;;4918307;29;20163;-78
2022/05/26 12:08:03;;;;;;;5.83;1.70;;;19.00;99.90;;;;;;4908254;29;20056;-79
2022/05/26 12:10:38;;;;;;;6.90;2.33;;;18.90;99.90;;;;;;4891908;29;20403;-79
2022/05/26 12:13:19;;;;;;;4.63;1.40;;;18.90;99.90;;;;;;4910649;29;20048;-79
2022/05/26 12:16:19;;;;;;;7.30;1.70;;;19.00;99.90;;;;;;4910367;29;20151;-78
2022/05/26 12:18:47;;;;;;;8.18;1.88;;;19.00;99.90;;;;;;4916732;29;20041;-79
2022/05/26 12:21:29;;;;;;;8.50;1.95;;;19.10;99.90;;;;;;4911963;29;20044;-80
2022/05/26 12:23:56;;;;;;;6.25;2.10;;;19.00;99.90;;;;;;4915892;29;20130;-78
2022/05/26 12:26:29;;;;;;;8.07;2.17;;;19.00;99.90;;;;;;4915953;29;20059;-78
2022/05/26 12:29:34;;;;;;;10.73;2.47;;;19.00;99.90;;;;;;4897317;29;20060;-79
2022/05/26 12:32:23;;;;;;;6.97;1.88;;;19.10;99.90;;;;;;4906236;29;20060;-79
2022/05/26 12:35:00;;;;;;;7.47;2.50;;;19.20;99.90;;;;;;4897316;29;20071;-78
2022/05/26 12:37:39;;;;;;;7.38;2.05;;;19.20;99.90;;;;;;4897508;29;20143;-78
2022/05/26 12:40:38;;;;;;;8.25;2.20;;;19.20;99.90;;;;;;4905843;29;20056;-78
2022/05/26 12:43:26;;;;;;;10.43;3.22;;;19.10;99.90;;;;;;4922058;29;20059;-79
2022/05/26 12:45:56;;;;;;;11.40;2.72;;;19.00;99.90;;;;;;4911995;29;20064;-78
2022/05/26 12:48:40;;;;;;;9.75;2.92;;;19.00;99.90;;;;;;4890642;29;20517;-79
2022/05/26 12:51:11;;;;;;;9.80;2.33;;;18.70;99.90;;;;;;4912446;29;20056;-78
2022/05/26 12:53:42;;;;;;;8.95;2.50;;;18.60;99.90;;;;;;4889735;29;20052;-78
2022/05/26 12:56:14;;;;;;;9.13;2.38;;;18.50;99.90;;;;;;4913536;29;20048;-78
2022/05/26 12:58:49;;;;;;;8.15;2.35;;;18.30;99.90;;;;;;4889620;29;20059;-78
2022/05/26 13:01:19;;;;;;;10.85;2.78;;;18.20;99.90;;;;;;4911506;29;20450;-78
2022/05/26 13:04:12;;;;;;;9.48;2.33;;;18.20;99.90;;;;;;4912387;29;20059;-78
2022/05/26 13:06:43;;;;;;;7.50;2.67;;;18.10;99.90;;;;;;4912536;29;20045;-78
2022/05/26 13:09:15;;;;;;;8.85;3.05;;;18.10;99.90;;;;;;4905579;29;20093;-78
2022/05/26 13:12:03;;;;;;;6.88;2.35;;;18.30;99.90;;;;;;4889752;29;20071;-78
2022/05/26 13:14:47;;;;;;;10.50;2.47;;;18.30;99.90;;;;;;4905871;29;20089;-80
2022/05/26 13:17:14;;;;;;;10.20;2.30;;;18.20;99.90;;;;;;4921457;29;20130;-78
2022/05/26 13:19:46;;;;;;;9.05;2.42;;;18.20;99.90;;;;;;4922273;29;20036;-78
2022/05/26 13:22:16;;;;;;;8.25;2.47;;;18.30;99.90;;;;;;4895996;29;20418;-78
2022/05/26 13:24:53;;;;;;;7.80;2.38;;;18.30;99.90;;;;;;4904440;29;20135;-78
2022/05/26 13:27:19;;;;;;;8.85;2.28;;;18.30;99.90;;;;;;4911411;29;20495;-79
2022/05/26 13:29:49;;;;;;;6.30;1.95;;;18.30;99.90;;;;;;4894668;29;20137;-77
2022/05/26 13:35:20;;;;;;;4.80;1.65;;;18.40;99.90;;;;;;4905757;29;20435;-78
2022/05/26 13:37:46;;;;;;;6.15;2.10;;;18.40;99.90;;;;;;4896206;29;20063;-79
2022/05/26 13:40:26;;;;;;;6.00;2.08;;;18.30;99.90;;;;;;4913175;29;20060;-77
2022/05/26 13:42:53;;;;;;;6.22;2.10;;;18.30;99.90;;;;;;4921329;29;20388;-78
2022/05/26 13:45:26;;;;;;;8.20;1.95;;;18.40;99.90;;;;;;4911813;29;20071;-78
2022/05/26 13:48:21;;;;;;;6.30;2.30;;;18.40;99.90;;;;;;4911394;29;20838;-78
2022/05/26 13:50:50;;;;;;;6.65;1.80;;;18.20;99.90;;;;;;4904810;29;20139;-78
2022/05/26 13:53:17;;;;;;;6.88;1.90;;;18.10;99.90;;;;;;4909815;29;20048;-78
2022/05/26 13:55:48;;;;;;;8.75;1.85;;;18.00;99.90;;;;;;4904588;29;20098;-78
2022/05/26 13:58:19;;;;;;;6.30;2.00;;;17.70;99.90;;;;;;4893534;29;20450;-77